createdAt,value
2022-09-02T00:00:00.062Z,8.99
2022-09-02T00:01:00.063Z,8.48
2022-09-02T00:03:00.240Z,8.54
2022-09-02T00:04:00.059Z,8.30
2022-09-02T00:05:00.073Z,9.01
2022-09-02T00:06:00.066Z,9.65
2022-09-02T00:08:00.310Z,8.46
2022-09-02T00:09:00.097Z,8.69
2022-09-02T00:10:00.078Z,8.44
2022-09-02T00:13:00.098Z,8.22
2022-09-02T00:14:00.076Z,8.58
2022-09-02T00:15:00.103Z,8.42
2022-09-02T00:16:00.091Z,9.41
2022-09-02T00:18:00.108Z,8.64
2022-09-02T00:19:00.110Z,8.87
2022-09-02T00:21:00.124Z,9.34
2022-09-02T00:22:00.130Z,8.42
2022-09-02T00:23:00.118Z,8.93
2022-09-02T00:24:00.126Z,9.33
2022-09-02T00:25:00.102Z,9.91
2022-09-02T00:28:00.138Z,8.99
2022-09-02T00:29:00.125Z,8.81
2022-09-02T00:30:00.180Z,8.84
2022-09-02T00:31:00.138Z,8.37
2022-09-02T00:32:00.215Z,8.77
2022-09-02T00:33:00.141Z,8.55
2022-09-02T00:34:00.134Z,8.96
2022-09-02T00:35:00.154Z,8.37
2022-09-02T00:36:00.145Z,9.19
2022-09-02T00:37:00.132Z,9.36
2022-09-02T00:38:00.171Z,9.48
2022-09-02T00:39:00.146Z,8.92
2022-09-02T00:40:00.164Z,8.64
2022-09-02T00:41:00.153Z,9.35
2022-09-02T00:43:00.144Z,9.97
2022-09-02T00:44:00.166Z,8.62
2022-09-02T00:47:00.166Z,8.98
2022-09-02T00:49:00.156Z,9.57
2022-09-02T00:50:00.202Z,9.21
2022-09-02T00:51:00.177Z,9.33
2022-09-02T00:52:00.199Z,9.02
2022-09-02T00:53:00.197Z,8.40
2022-09-02T00:54:00.175Z,8.74
2022-09-02T00:55:00.203Z,9.03
2022-09-02T00:56:00.188Z,9.76
2022-09-02T00:58:00.191Z,8.37
2022-09-02T00:59:00.226Z,9.29
2022-09-02T01:00:00.237Z,9.09
2022-09-02T01:01:00.324Z,9.46
2022-09-02T01:03:00.203Z,8.66
2022-09-02T01:04:00.221Z,8.95
2022-09-02T01:06:00.199Z,9.18
2022-09-02T01:07:00.216Z,9.19
2022-09-02T01:08:00.203Z,9.41
2022-09-02T01:09:00.216Z,9.20
2022-09-02T01:10:00.231Z,8.64
2022-09-02T01:11:00.263Z,8.01
2022-09-02T01:12:00.246Z,8.64
2022-09-02T01:13:00.218Z,8.83
2022-09-02T01:14:00.238Z,9.79
2022-09-02T01:15:00.236Z,8.62
2022-09-02T01:16:00.331Z,9.43
2022-09-02T01:18:00.238Z,8.86
2022-09-02T01:19:00.243Z,9.19
2022-09-02T01:20:00.253Z,9.90
2022-09-02T01:21:00.259Z,9.32
2022-09-02T01:22:00.259Z,8.50
2022-09-02T01:23:00.249Z,9.76
2022-09-02T01:25:00.278Z,9.44
2022-09-02T01:30:00.268Z,8.30
2022-09-02T01:32:00.386Z,8.57
2022-09-02T01:34:00.285Z,9.59
2022-09-02T01:35:00.292Z,9.53
2022-09-02T01:38:00.305Z,9.33
2022-09-02T01:40:00.289Z,9.18
2022-09-02T01:42:00.297Z,9.52
2022-09-02T01:44:00.302Z,8.71
2022-09-02T01:45:00.325Z,9.32
2022-09-02T01:46:00.303Z,9.61
2022-09-02T01:47:00.395Z,9.04
2022-09-02T01:48:00.329Z,8.93
2022-09-02T01:49:00.324Z,9.00
2022-09-02T01:51:00.317Z,8.85
2022-09-02T01:53:00.326Z,9.12
2022-09-02T01:54:00.317Z,9.30
2022-09-02T01:56:00.332Z,9.40
2022-09-02T01:57:00.338Z,9.42
2022-09-02T01:58:00.331Z,9.38
2022-09-02T02:00:00.378Z,8.84
2022-09-02T02:01:00.398Z,9.55
2022-09-02T02:02:00.412Z,8.58
2022-09-02T02:04:00.360Z,8.94
2022-09-02T02:05:00.343Z,9.91
2022-09-02T02:06:00.368Z,8.50
2022-09-02T02:07:00.371Z,9.44
2022-09-02T02:08:00.362Z,8.73
2022-09-02T02:09:00.379Z,8.48
2022-09-02T02:10:00.370Z,9.44
2022-09-02T02:11:00.371Z,8.58
2022-09-02T02:12:00.399Z,8.15
2022-09-02T02:13:00.385Z,8.48
2022-09-02T02:14:00.379Z,9.50
2022-09-02T02:17:00.414Z,9.20
2022-09-02T02:18:00.376Z,9.30
2022-09-02T02:19:00.388Z,9.38
2022-09-02T02:20:00.402Z,9.98
2022-09-02T02:21:00.410Z,9.50
2022-09-02T02:22:00.398Z,9.58
2022-09-02T02:23:00.428Z,9.42
2022-09-02T02:24:00.418Z,10.35
2022-09-02T02:25:00.424Z,8.95
2022-09-02T02:27:00.423Z,9.07
2022-09-02T02:32:00.426Z,9.16
2022-09-02T02:33:00.416Z,8.98
2022-09-02T02:36:00.450Z,9.74
2022-09-02T02:39:00.426Z,9.85
2022-09-02T02:40:00.450Z,9.09
2022-09-02T02:41:00.450Z,9.76
2022-09-02T02:45:00.563Z,9.39
2022-09-02T02:48:00.465Z,8.91
2022-09-02T02:49:00.556Z,9.75
2022-09-02T02:50:00.458Z,9.74
2022-09-02T02:51:00.569Z,9.93
2022-09-02T02:52:00.559Z,8.72
2022-09-02T02:53:00.565Z,8.92
2022-09-02T02:55:00.568Z,9.03
2022-09-02T02:58:00.581Z,9.30
2022-09-02T03:01:00.592Z,9.78
2022-09-02T03:02:00.800Z,8.93
2022-09-02T03:03:00.655Z,9.18
2022-09-02T03:04:00.583Z,10.07
2022-09-02T03:05:00.606Z,10.17
2022-09-02T03:06:00.607Z,10.04
2022-09-02T03:09:00.622Z,9.28
2022-09-02T03:10:00.603Z,8.69
2022-09-02T03:11:00.626Z,9.41
2022-09-02T03:12:00.631Z,9.33
2022-09-02T03:14:00.633Z,9.34
2022-09-02T03:15:00.628Z,9.67
2022-09-02T03:16:00.716Z,9.75
2022-09-02T03:17:01.307Z,8.88
2022-09-02T03:18:00.629Z,9.65
2022-09-02T03:21:00.659Z,9.03
2022-09-02T03:22:00.640Z,10.20
2022-09-02T03:23:00.637Z,9.21
2022-09-02T03:24:00.638Z,8.83
2022-09-02T03:26:00.658Z,9.53
2022-09-02T03:31:00.820Z,9.83
2022-09-02T03:32:00.636Z,9.17
2022-09-02T03:34:00.653Z,8.46
2022-09-02T03:35:00.657Z,9.51
2022-09-02T03:36:00.643Z,9.33
2022-09-02T03:37:00.664Z,9.13
2022-09-02T03:38:00.671Z,9.01
2022-09-02T03:39:00.641Z,9.01
2022-09-02T03:40:00.654Z,8.81
2022-09-02T03:41:00.644Z,8.84
2022-09-02T03:43:00.817Z,9.48
2022-09-02T03:44:00.660Z,9.61
2022-09-02T03:47:00.638Z,9.38
2022-09-02T03:48:00.657Z,10.04
2022-09-02T03:50:00.666Z,8.83
2022-09-02T03:53:00.639Z,9.41
2022-09-02T03:54:00.646Z,9.05
2022-09-02T03:55:00.678Z,9.40
2022-09-02T03:56:00.652Z,9.22
2022-09-02T03:57:00.661Z,9.94
2022-09-02T03:58:01.917Z,9.07
2022-09-02T03:59:00.658Z,9.08
2022-09-02T04:00:00.681Z,8.48
2022-09-02T04:01:00.663Z,8.78
2022-09-02T04:02:00.797Z,10.02
2022-09-02T04:04:00.722Z,9.10
2022-09-02T04:06:00.672Z,9.59
2022-09-02T04:07:00.664Z,8.82
2022-09-02T04:08:00.685Z,9.06
2022-09-02T04:09:00.666Z,8.77
2022-09-02T04:10:00.688Z,9.06
2022-09-02T04:13:00.696Z,8.37
2022-09-02T04:15:00.698Z,9.09
2022-09-02T04:16:02.053Z,9.62
2022-09-02T04:19:00.688Z,9.58
2022-09-02T04:21:00.714Z,8.41
2022-09-02T04:23:00.702Z,8.83
2022-09-02T04:24:00.695Z,9.02
2022-09-02T04:26:00.715Z,9.30
2022-09-02T04:27:04.025Z,9.66
2022-09-02T04:29:00.719Z,10.09
2022-09-02T04:31:00.840Z,9.13
2022-09-02T04:32:00.738Z,8.88
2022-09-02T04:33:00.751Z,8.85
2022-09-02T04:34:00.742Z,9.58
2022-09-02T04:36:00.749Z,8.99
2022-09-02T04:37:00.765Z,9.23
2022-09-02T04:38:00.739Z,9.72
2022-09-02T04:40:00.737Z,8.61
2022-09-02T04:41:00.753Z,9.80
2022-09-02T04:43:00.776Z,9.56
2022-09-02T04:46:00.928Z,8.56
2022-09-02T04:47:00.781Z,8.62
2022-09-02T04:50:00.773Z,9.43
2022-09-02T04:51:00.806Z,9.30
2022-09-02T04:52:00.799Z,8.69
2022-09-02T04:53:00.775Z,9.72
2022-09-02T04:54:00.787Z,8.87
2022-09-02T04:56:00.785Z,8.70
2022-09-02T04:58:00.787Z,9.04
2022-09-02T05:00:00.832Z,9.55
2022-09-02T05:01:00.805Z,9.03
2022-09-02T05:04:00.816Z,8.96
2022-09-02T05:05:00.852Z,8.82
2022-09-02T05:08:00.835Z,9.89
2022-09-02T05:09:00.830Z,9.27
2022-09-02T05:10:00.816Z,9.91
2022-09-02T05:11:00.860Z,9.76
2022-09-02T05:12:00.823Z,8.74
2022-09-02T05:14:00.836Z,8.81
2022-09-02T05:15:00.840Z,9.53
2022-09-02T05:16:00.900Z,9.31
2022-09-02T05:17:05.150Z,9.58
2022-09-02T05:25:00.856Z,9.56
2022-09-02T05:26:00.867Z,9.99
2022-09-02T05:27:00.872Z,9.11
2022-09-02T05:28:00.872Z,10.24
2022-09-02T05:29:00.866Z,9.71
2022-09-02T05:30:00.907Z,9.54
2022-09-02T05:31:00.927Z,9.90
2022-09-02T05:33:00.890Z,10.09
2022-09-02T05:35:00.894Z,10.66
2022-09-02T05:36:00.885Z,10.19
2022-09-02T05:37:00.881Z,9.82
2022-09-02T05:38:01.305Z,9.50
2022-09-02T05:39:00.915Z,10.55
2022-09-02T05:40:01.426Z,10.12
2022-09-02T05:41:00.906Z,10.36
2022-09-02T05:42:00.899Z,9.40
2022-09-02T05:43:00.891Z,9.30
2022-09-02T05:44:01.509Z,10.74
2022-09-02T05:45:00.907Z,9.77
2022-09-02T05:46:00.931Z,9.27
2022-09-02T05:47:00.922Z,9.80
2022-09-02T05:48:00.915Z,9.32
2022-09-02T05:49:00.919Z,9.74
2022-09-02T05:50:00.934Z,8.98
2022-09-02T05:51:00.929Z,9.16
2022-09-02T05:52:00.924Z,9.40
2022-09-02T05:53:00.949Z,9.36
2022-09-02T05:54:00.950Z,9.46
2022-09-02T05:55:00.954Z,8.62
2022-09-02T05:56:00.933Z,9.77
2022-09-02T05:57:00.938Z,9.75
2022-09-02T05:58:00.941Z,9.90
2022-09-02T05:59:01.690Z,8.73
2022-09-02T06:00:00.965Z,9.87
2022-09-02T06:01:00.953Z,8.37
2022-09-02T06:02:01.004Z,9.04
2022-09-02T06:03:01.053Z,9.82
2022-09-02T06:04:00.962Z,9.18
2022-09-02T06:05:00.964Z,9.04
2022-09-02T06:06:06.412Z,8.52
2022-09-02T06:07:00.966Z,8.63
2022-09-02T06:08:00.978Z,8.51
2022-09-02T06:09:00.976Z,9.68
2022-09-02T06:10:00.979Z,9.09
2022-09-02T06:11:00.986Z,9.70
2022-09-02T06:12:00.984Z,8.89
2022-09-02T06:13:00.986Z,9.36
2022-09-02T06:14:00.977Z,8.81
2022-09-02T06:15:00.980Z,9.29
2022-09-02T06:16:01.053Z,9.15
2022-09-02T06:17:00.987Z,9.35
2022-09-02T06:18:00.994Z,9.53
2022-09-02T06:19:00.987Z,8.54
2022-09-02T06:20:00.987Z,8.61
2022-09-02T06:21:01.008Z,8.87
2022-09-02T06:22:01.010Z,8.95
2022-09-02T06:23:00.994Z,8.85
2022-09-02T06:24:01.012Z,9.01
2022-09-02T06:25:01.029Z,9.67
2022-09-02T06:26:01.046Z,9.23
2022-09-02T06:27:01.021Z,9.53
2022-09-02T06:28:05.185Z,8.96
2022-09-02T06:29:01.026Z,9.74
2022-09-02T06:30:01.015Z,9.86
2022-09-02T06:31:01.067Z,10.12
2022-09-02T06:32:01.031Z,9.74
2022-09-02T06:33:01.032Z,8.50
2022-09-02T06:34:01.032Z,9.24
2022-09-02T06:35:01.037Z,8.69
2022-09-02T06:36:01.188Z,8.49
2022-09-02T06:37:01.046Z,7.69
2022-09-02T06:38:01.042Z,9.48
2022-09-02T06:39:01.068Z,8.93
2022-09-02T06:40:01.077Z,9.07
2022-09-02T06:41:01.170Z,8.25
2022-09-02T06:42:01.120Z,9.85
2022-09-02T06:44:01.055Z,9.83
2022-09-02T06:45:01.048Z,9.27
2022-09-02T06:46:01.140Z,9.04
2022-09-02T06:47:01.085Z,8.86
2022-09-02T06:48:01.077Z,9.59
2022-09-02T06:49:01.070Z,8.55
2022-09-02T06:50:01.068Z,9.39
2022-09-02T06:51:01.075Z,8.44
2022-09-02T06:52:01.078Z,9.34
2022-09-02T06:53:01.098Z,8.10
2022-09-02T06:54:01.078Z,9.38
2022-09-02T06:55:01.082Z,9.67
2022-09-02T06:56:01.107Z,10.22
2022-09-02T06:57:01.113Z,9.07
2022-09-02T06:58:01.107Z,8.95
2022-09-02T06:59:01.097Z,8.75
2022-09-02T07:00:02.396Z,9.33
2022-09-02T07:01:01.164Z,9.37
2022-09-02T07:02:01.376Z,9.03
2022-09-02T07:03:01.107Z,9.16
2022-09-02T07:04:01.116Z,8.93
2022-09-02T07:05:01.125Z,8.52
2022-09-02T07:06:01.105Z,8.49
2022-09-02T07:07:01.115Z,8.68
2022-09-02T07:08:01.117Z,8.35
2022-09-02T07:09:01.125Z,8.88
2022-09-02T07:10:01.139Z,8.45
2022-09-02T07:11:01.125Z,8.40
2022-09-02T07:12:04.740Z,8.48
2022-09-02T07:13:01.145Z,7.32
2022-09-02T07:14:01.149Z,8.12
2022-09-02T07:15:01.143Z,7.90
2022-09-02T07:16:01.169Z,8.64
2022-09-02T07:17:01.245Z,8.01
2022-09-02T07:18:01.151Z,7.67
2022-09-02T07:19:01.155Z,8.84
2022-09-02T07:20:01.153Z,8.45
2022-09-02T07:21:01.183Z,8.29
2022-09-02T07:22:01.170Z,7.62
2022-09-02T07:23:01.186Z,7.21
2022-09-02T07:24:01.164Z,7.46
2022-09-02T07:25:01.185Z,7.56
2022-09-02T07:26:01.166Z,7.53
2022-09-02T07:27:01.214Z,7.93
2022-09-02T07:28:01.167Z,7.15
2022-09-02T07:29:01.192Z,6.82
2022-09-02T07:30:01.206Z,7.20
2022-09-02T07:31:01.240Z,7.31
2022-09-02T07:32:01.234Z,8.74
2022-09-02T07:33:01.201Z,7.69
2022-09-02T07:34:01.212Z,7.03
2022-09-02T07:35:01.192Z,7.52
2022-09-02T07:36:01.195Z,7.54
2022-09-02T07:37:05.099Z,7.71
2022-09-02T07:38:01.203Z,7.32
2022-09-02T07:39:01.210Z,6.95
2022-09-02T07:40:01.210Z,7.52
2022-09-02T07:41:01.218Z,7.77
2022-09-02T07:42:01.261Z,7.89
2022-09-02T07:43:01.227Z,8.04
2022-09-02T07:44:01.260Z,8.11
2022-09-02T07:45:01.234Z,7.05
2022-09-02T07:46:01.285Z,7.06
2022-09-02T07:47:01.265Z,7.85
2022-09-02T07:48:01.234Z,7.74
2022-09-02T07:49:01.221Z,7.47
2022-09-02T07:50:19.846Z,7.38
2022-09-02T07:51:01.263Z,8.23
2022-09-02T07:52:01.256Z,7.43
2022-09-02T07:53:01.231Z,8.21
2022-09-02T07:54:01.243Z,7.45
2022-09-02T07:55:01.261Z,7.61
2022-09-02T07:56:01.246Z,8.38
2022-09-02T07:57:01.291Z,7.59
2022-09-02T07:58:01.271Z,7.33
2022-09-02T07:59:01.263Z,7.25
2022-09-02T08:00:01.265Z,7.45
2022-09-02T08:01:01.340Z,7.28
2022-09-02T08:02:01.367Z,7.48
2022-09-02T08:03:01.380Z,7.39
2022-09-02T08:04:04.135Z,6.91
2022-09-02T08:05:01.299Z,7.82
2022-09-02T08:06:01.282Z,8.15
2022-09-02T08:07:01.347Z,7.14
2022-09-02T08:08:01.303Z,8.23
2022-09-02T08:09:01.285Z,8.79
2022-09-02T08:10:01.312Z,8.71
2022-09-02T08:12:01.324Z,7.65
2022-09-02T08:13:01.303Z,8.28
2022-09-02T08:14:01.309Z,7.46
2022-09-02T08:15:01.325Z,7.48
2022-09-02T08:16:01.309Z,7.05
2022-09-02T08:17:01.438Z,6.82
2022-09-02T08:18:01.297Z,7.87
2022-09-02T08:19:01.309Z,8.33
2022-09-02T08:20:01.336Z,7.98
2022-09-02T08:21:01.303Z,7.93
2022-09-02T08:22:01.317Z,8.05
2022-09-02T08:23:10.860Z,7.31
2022-09-02T08:24:01.354Z,7.22
2022-09-02T08:25:01.320Z,7.08
2022-09-02T08:26:01.335Z,7.49
2022-09-02T08:27:01.353Z,7.07
2022-09-02T08:28:01.339Z,6.17
2022-09-02T08:29:01.340Z,7.02
2022-09-02T08:30:01.344Z,8.43
2022-09-02T08:31:01.365Z,6.84
2022-09-02T08:32:01.474Z,6.74
2022-09-02T08:33:01.365Z,6.44
2022-09-02T08:34:01.348Z,6.20
2022-09-02T08:35:01.349Z,7.93
2022-09-02T08:36:01.361Z,8.03
2022-09-02T08:37:01.356Z,6.89
2022-09-02T08:38:02.118Z,7.05
2022-09-02T08:39:01.398Z,7.69
2022-09-02T08:40:01.374Z,7.46
2022-09-02T08:41:01.395Z,7.29
2022-09-02T08:43:01.372Z,7.27
2022-09-02T08:44:01.393Z,7.95
2022-09-02T08:45:01.386Z,7.69
2022-09-02T08:46:01.524Z,7.68
2022-09-02T08:47:01.401Z,7.27
2022-09-02T08:48:01.412Z,7.03
2022-09-02T08:49:01.392Z,7.09
2022-09-02T08:50:01.389Z,6.67
2022-09-02T08:51:01.399Z,7.98
2022-09-02T08:52:01.425Z,8.11
2022-09-02T08:53:01.408Z,7.73
2022-09-02T08:54:01.410Z,7.13
2022-09-02T08:55:01.414Z,6.76
2022-09-02T08:56:01.416Z,6.68
2022-09-02T08:57:01.426Z,6.96
2022-09-02T08:58:01.443Z,7.45
2022-09-02T08:59:01.435Z,6.87
2022-09-02T09:00:01.463Z,8.38
2022-09-02T09:01:01.484Z,7.69
2022-09-02T09:02:01.489Z,7.59
2022-09-02T09:03:01.461Z,7.09
2022-09-02T09:04:01.419Z,7.97
2022-09-02T09:05:01.445Z,7.90
2022-09-02T09:06:01.444Z,6.91
2022-09-02T09:07:01.447Z,6.80
2022-09-02T09:09:01.465Z,7.16
2022-09-02T09:10:01.462Z,7.68
2022-09-02T09:11:01.462Z,7.64
2022-09-02T09:12:01.446Z,7.77
2022-09-02T09:13:01.477Z,7.97
2022-09-02T09:14:01.460Z,7.65
2022-09-02T09:15:01.488Z,7.97
2022-09-02T09:16:01.505Z,8.18
2022-09-02T09:17:01.465Z,7.10
2022-09-02T09:18:01.477Z,7.18
2022-09-02T09:19:02.995Z,7.38
2022-09-02T09:20:01.478Z,7.32
2022-09-02T09:21:01.477Z,6.30
2022-09-02T09:22:01.482Z,6.53
2022-09-02T09:23:01.487Z,6.54
2022-09-02T09:24:01.501Z,7.28
2022-09-02T09:25:01.499Z,6.76
2022-09-02T09:26:01.494Z,8.74
2022-09-02T09:27:01.490Z,7.23
2022-09-02T09:28:01.507Z,7.88
2022-09-02T09:29:01.516Z,7.97
2022-09-02T09:30:01.510Z,8.37
2022-09-02T09:31:01.514Z,7.83
2022-09-02T09:32:01.589Z,7.13
2022-09-02T09:33:01.517Z,7.47
2022-09-02T09:34:01.525Z,7.35
2022-09-02T09:35:01.559Z,7.92
2022-09-02T09:36:01.518Z,7.17
2022-09-02T09:37:01.530Z,6.74
2022-09-02T09:38:01.529Z,7.07
2022-09-02T09:39:01.514Z,6.88
2022-09-02T09:40:01.580Z,7.37
2022-09-02T09:41:01.535Z,6.91
2022-09-02T09:42:01.536Z,7.99
2022-09-02T09:44:01.537Z,7.09
2022-09-02T09:45:01.560Z,6.62
2022-09-02T09:46:01.615Z,7.68
2022-09-02T09:47:01.567Z,7.87
2022-09-02T09:48:01.554Z,7.14
2022-09-02T09:49:01.553Z,7.70
2022-09-02T09:50:01.573Z,7.65
2022-09-02T09:51:01.562Z,8.19
2022-09-02T09:52:01.561Z,8.76
2022-09-02T09:53:01.575Z,7.55
2022-09-02T09:54:01.559Z,7.86
2022-09-02T09:55:01.587Z,8.13
2022-09-02T09:56:01.607Z,6.82
2022-09-02T09:57:01.575Z,7.40
2022-09-02T09:58:01.583Z,7.78
2022-09-02T09:59:01.578Z,7.27
2022-09-02T10:00:01.581Z,7.88
2022-09-02T10:01:01.600Z,7.60
2022-09-02T10:02:01.667Z,7.38
2022-09-02T10:03:01.658Z,7.06
2022-09-02T10:04:01.606Z,7.75
2022-09-02T10:05:01.596Z,7.46
2022-09-02T10:07:01.599Z,7.27
2022-09-02T10:08:01.591Z,6.74
2022-09-02T10:09:01.624Z,8.04
2022-09-02T10:10:01.602Z,7.10
2022-09-02T10:11:01.610Z,8.45
2022-09-02T10:12:01.630Z,7.59
2022-09-02T10:13:01.626Z,8.04
2022-09-02T10:14:01.622Z,7.76
2022-09-02T10:15:01.655Z,8.20
2022-09-02T10:16:01.690Z,7.73
2022-09-02T10:17:01.616Z,7.38
2022-09-02T10:18:01.618Z,8.38
2022-09-02T10:19:01.651Z,8.72
2022-09-02T10:20:04.578Z,7.36
2022-09-02T10:21:15.077Z,7.97
2022-09-02T10:22:01.660Z,7.77
2022-09-02T10:23:01.625Z,7.54
2022-09-02T10:24:01.647Z,6.86
2022-09-02T10:25:01.678Z,6.41
2022-09-02T10:26:01.664Z,7.02
2022-09-02T10:27:01.660Z,7.56
2022-09-02T10:28:01.673Z,7.55
2022-09-02T10:29:04.086Z,7.74
2022-09-02T10:30:01.651Z,7.58
2022-09-02T10:31:01.721Z,8.80
2022-09-02T10:33:01.694Z,7.10
2022-09-02T10:34:01.682Z,7.69
2022-09-02T10:35:01.706Z,8.36
2022-09-02T10:36:01.677Z,7.35
2022-09-02T10:37:01.678Z,8.52
2022-09-02T10:38:01.687Z,7.47
2022-09-02T10:39:01.692Z,8.31
2022-09-02T10:40:01.694Z,7.48
2022-09-02T10:41:01.681Z,8.07
2022-09-02T10:42:01.702Z,7.93
2022-09-02T10:43:01.690Z,6.21
2022-09-02T10:44:01.706Z,7.28
2022-09-02T10:45:01.711Z,8.01
2022-09-02T10:46:01.695Z,9.13
2022-09-02T10:48:01.708Z,8.42
2022-09-02T10:49:01.761Z,7.99
2022-09-02T10:50:01.740Z,7.62
2022-09-02T10:51:01.702Z,7.83
2022-09-02T10:52:01.721Z,8.02
2022-09-02T10:53:03.635Z,8.05
2022-09-02T10:54:01.706Z,8.16
2022-09-02T10:55:01.736Z,8.19
2022-09-02T10:56:01.724Z,8.14
2022-09-02T10:57:01.736Z,6.61
2022-09-02T10:58:01.734Z,6.86
2022-09-02T10:59:01.831Z,7.31
2022-09-02T11:00:01.740Z,7.81
2022-09-02T11:01:01.848Z,7.94
2022-09-02T11:02:01.750Z,7.97
2022-09-02T11:03:01.792Z,7.63
2022-09-02T11:04:01.821Z,8.67
2022-09-02T11:05:01.770Z,7.45
2022-09-02T11:06:01.764Z,7.11
2022-09-02T11:07:03.363Z,8.92
2022-09-02T11:08:01.773Z,9.47
2022-09-02T11:09:01.767Z,11.27
2022-09-02T11:10:01.807Z,11.24
2022-09-02T11:11:01.792Z,8.93
2022-09-02T11:12:01.783Z,9.23
2022-09-02T11:13:01.768Z,10.98
2022-09-02T11:14:01.785Z,12.45
2022-09-02T11:15:01.803Z,9.35
2022-09-02T11:16:01.805Z,8.81
2022-09-02T11:17:01.820Z,8.66
2022-09-02T11:18:01.820Z,8.82
2022-09-02T11:19:01.791Z,8.65
2022-09-02T11:20:01.822Z,9.10
2022-09-02T11:22:01.798Z,9.34
2022-09-02T11:23:01.817Z,9.25
2022-09-02T11:24:03.101Z,7.08
2022-09-02T11:25:01.828Z,8.16
2022-09-02T11:26:01.811Z,8.06
2022-09-02T11:27:01.819Z,8.82
2022-09-02T11:28:01.810Z,10.15
2022-09-02T11:29:01.813Z,8.90
2022-09-02T11:30:01.838Z,9.47
2022-09-02T11:31:01.809Z,8.94
2022-09-02T11:32:01.824Z,8.70
2022-09-02T11:33:01.826Z,9.13
2022-09-02T11:35:01.848Z,7.65
2022-09-02T11:36:01.833Z,7.57
2022-09-02T11:37:01.838Z,7.59
2022-09-02T11:38:01.842Z,7.66
2022-09-02T11:39:01.849Z,7.76
2022-09-02T11:40:23.391Z,8.03
2022-09-02T11:41:34.147Z,8.74
2022-09-02T11:42:01.910Z,8.18
2022-09-02T11:43:01.859Z,7.57
2022-09-02T11:44:01.868Z,7.33
2022-09-02T11:45:01.863Z,7.41
2022-09-02T11:46:01.910Z,7.30
2022-09-02T11:47:01.936Z,7.05
2022-09-02T11:48:01.859Z,7.07
2022-09-02T11:49:01.857Z,7.04
2022-09-02T11:50:01.873Z,7.82
2022-09-02T11:51:01.912Z,7.03
2022-09-02T11:53:01.895Z,8.54
2022-09-02T11:54:01.893Z,7.85
2022-09-02T11:55:02.790Z,8.13
2022-09-02T11:57:01.893Z,7.41
2022-09-02T11:58:01.890Z,6.36
2022-09-02T11:59:01.888Z,7.45
2022-09-02T12:00:01.915Z,7.35
2022-09-02T12:04:55.939Z,7.82
2022-09-02T12:05:02.441Z,8.36
2022-09-02T12:06:02.052Z,7.56
2022-09-02T12:07:07.169Z,7.91
2022-09-02T12:08:01.935Z,7.39
2022-09-02T12:11:01.920Z,7.28
2022-09-02T12:13:01.942Z,7.82
2022-09-02T12:14:04.639Z,6.64
2022-09-02T12:15:01.930Z,7.48
2022-09-02T12:16:01.962Z,8.46
2022-09-02T12:17:01.935Z,7.84
2022-09-02T12:18:01.943Z,8.08
2022-09-02T12:19:01.951Z,7.57
2022-09-02T12:20:01.961Z,7.61
2022-09-02T12:21:01.964Z,7.37
2022-09-02T12:22:01.954Z,9.83
2022-09-02T12:23:01.957Z,7.73
2022-09-02T12:25:01.957Z,8.16
2022-09-02T12:26:01.984Z,8.72
2022-09-02T12:27:01.980Z,7.95
2022-09-02T12:28:02.044Z,8.90
2022-09-02T12:29:01.976Z,8.82
2022-09-02T12:30:01.981Z,8.07
2022-09-02T12:31:02.074Z,8.31
2022-09-02T12:32:01.991Z,8.81
2022-09-02T12:33:02.003Z,8.05
2022-09-02T12:34:01.993Z,7.21
2022-09-02T12:35:01.997Z,8.08
2022-09-02T12:36:01.990Z,8.13
2022-09-02T12:37:02.019Z,7.75
2022-09-02T12:38:02.002Z,7.13
2022-09-02T12:39:02.010Z,7.87
2022-09-02T12:40:01.992Z,8.61
2022-09-02T12:41:02.011Z,8.56
2022-09-02T12:42:02.005Z,6.65
2022-09-02T12:43:02.012Z,6.40
2022-09-02T12:44:02.010Z,6.26
2022-09-02T12:45:02.008Z,7.25
2022-09-02T12:46:02.120Z,6.29
2022-09-02T12:47:02.022Z,7.68
2022-09-02T12:48:02.022Z,7.22
2022-09-02T12:49:02.025Z,7.53
2022-09-02T12:51:02.052Z,7.32
2022-09-02T12:52:02.051Z,7.11
2022-09-02T12:53:02.039Z,7.60
2022-09-02T12:54:02.043Z,7.22
2022-09-02T12:55:02.056Z,6.57
2022-09-02T12:56:02.057Z,7.86
2022-09-02T12:57:02.046Z,6.40
2022-09-02T12:58:02.066Z,6.44
2022-09-02T12:59:03.007Z,6.27
2022-09-02T13:00:02.058Z,6.83
2022-09-02T13:01:02.059Z,7.16
2022-09-02T13:02:02.082Z,7.02
2022-09-02T13:03:02.059Z,7.12
2022-09-02T13:04:02.062Z,7.00
2022-09-02T13:05:02.094Z,6.55
2022-09-02T13:06:02.083Z,6.53
2022-09-02T13:07:02.069Z,6.54
2022-09-02T13:08:02.306Z,6.60
2022-09-02T13:09:02.095Z,8.20
2022-09-02T13:10:02.116Z,7.43
2022-09-02T13:11:02.093Z,7.07
2022-09-02T13:12:02.082Z,7.04
2022-09-02T13:13:02.088Z,7.61
2022-09-02T13:14:02.087Z,6.97
2022-09-02T13:15:02.131Z,6.58
2022-09-02T13:16:02.145Z,6.91
2022-09-02T13:17:19.151Z,6.25
2022-09-02T13:18:02.106Z,6.51
2022-09-02T13:19:02.114Z,6.56
2022-09-02T13:20:02.131Z,6.86
2022-09-02T13:21:02.118Z,5.97
2022-09-02T13:22:02.104Z,6.15
2022-09-02T13:23:02.118Z,5.75
2022-09-02T13:24:02.120Z,5.58
2022-09-02T13:25:02.171Z,5.98
2022-09-02T13:26:02.112Z,6.64
2022-09-02T13:27:02.125Z,6.24
2022-09-02T13:28:02.130Z,5.79
2022-09-02T13:29:02.120Z,6.35
2022-09-02T13:30:02.133Z,7.09
2022-09-02T13:31:02.176Z,5.73
2022-09-02T13:32:02.147Z,7.03
2022-09-02T13:33:02.146Z,6.29
2022-09-02T13:34:03.663Z,6.44
2022-09-02T13:36:02.174Z,5.92
2022-09-02T13:37:02.149Z,6.28
2022-09-02T13:38:02.250Z,6.61
2022-09-02T13:41:02.169Z,6.32
2022-09-02T13:42:02.177Z,6.32
2022-09-02T13:43:02.173Z,6.37
2022-09-02T13:44:02.175Z,6.74
2022-09-02T13:45:02.206Z,6.32
2022-09-02T13:47:02.235Z,7.23
2022-09-02T13:48:02.190Z,6.26
2022-09-02T13:50:02.184Z,6.16
2022-09-02T13:51:02.184Z,6.33
2022-09-02T13:52:02.194Z,6.21
2022-09-02T13:55:02.196Z,7.10
2022-09-02T13:57:02.241Z,6.02
2022-09-02T13:58:02.214Z,6.64
2022-09-02T13:59:02.213Z,6.48
2022-09-02T14:00:02.288Z,6.68
2022-09-02T14:01:02.705Z,7.14
2022-09-02T14:02:02.444Z,6.51
2022-09-02T14:03:02.340Z,6.88
2022-09-02T14:04:02.338Z,6.03
2022-09-02T14:05:02.230Z,7.15
2022-09-02T14:06:02.667Z,6.47
2022-09-02T14:07:02.248Z,6.83
2022-09-02T14:08:02.252Z,8.03
2022-09-02T14:10:02.294Z,6.95
2022-09-02T14:11:06.823Z,6.39
2022-09-02T14:12:02.261Z,6.51
2022-09-02T14:13:02.256Z,6.77
2022-09-02T14:14:02.281Z,6.37
2022-09-02T14:15:02.263Z,6.28
2022-09-02T14:16:02.312Z,5.35
2022-09-02T14:17:02.275Z,5.91
2022-09-02T14:18:02.289Z,5.47
2022-09-02T14:19:02.285Z,6.56
2022-09-02T14:20:02.388Z,6.97
2022-09-02T14:21:02.282Z,7.02
2022-09-02T14:22:02.284Z,6.48
2022-09-02T14:23:02.291Z,6.88
2022-09-02T14:24:02.287Z,6.77
2022-09-02T14:25:02.274Z,7.17
2022-09-02T14:26:02.294Z,6.55
2022-09-02T14:27:02.296Z,6.71
2022-09-02T14:29:02.303Z,7.39
2022-09-02T14:30:02.334Z,7.68
2022-09-02T14:31:02.386Z,7.39
2022-09-02T14:32:02.316Z,6.44
2022-09-02T14:33:02.326Z,6.43
2022-09-02T14:34:02.310Z,7.09
2022-09-02T14:35:02.339Z,6.95
2022-09-02T14:36:02.327Z,6.55
2022-09-02T14:37:02.320Z,6.63
2022-09-02T14:38:02.312Z,6.30
2022-09-02T14:39:02.318Z,6.31
2022-09-02T14:41:02.329Z,6.85
2022-09-02T14:42:02.333Z,7.23
2022-09-02T14:43:02.319Z,7.37
2022-09-02T14:44:02.873Z,7.08
2022-09-02T14:45:02.347Z,6.60
2022-09-02T14:46:02.395Z,7.23
2022-09-02T14:47:02.335Z,6.89
2022-09-02T14:48:02.349Z,6.45
2022-09-02T14:49:02.358Z,6.51
2022-09-02T14:50:02.402Z,7.05
2022-09-02T14:52:02.380Z,6.93
2022-09-02T14:53:02.374Z,6.48
2022-09-02T14:55:02.375Z,6.12
2022-09-02T14:56:02.361Z,7.45
2022-09-02T14:57:02.378Z,6.96
2022-09-02T14:58:02.380Z,6.77
2022-09-02T14:59:02.379Z,6.56
2022-09-02T15:00:02.389Z,6.78
2022-09-02T15:01:02.566Z,6.22
2022-09-02T15:03:02.389Z,7.70
2022-09-02T15:04:02.495Z,7.17
2022-09-02T15:05:02.479Z,6.86
2022-09-02T15:06:02.393Z,7.71
2022-09-02T15:07:02.398Z,7.19
2022-09-02T15:08:02.418Z,6.30
2022-09-02T15:09:04.386Z,7.02
2022-09-02T15:10:02.408Z,7.45
2022-09-02T15:11:02.415Z,6.82
2022-09-02T15:12:03.084Z,6.56
2022-09-02T15:13:02.411Z,6.31
2022-09-02T15:15:02.413Z,6.73
2022-09-02T15:17:02.427Z,7.21
2022-09-02T15:18:02.431Z,6.07
2022-09-02T15:19:02.437Z,6.39
2022-09-02T15:20:02.455Z,6.62
2022-09-02T15:21:02.434Z,6.73
2022-09-02T15:22:02.431Z,6.62
2022-09-02T15:23:02.430Z,6.29
2022-09-02T15:24:02.450Z,7.11
2022-09-02T15:25:02.455Z,5.79
2022-09-02T15:26:02.439Z,6.77
2022-09-02T15:27:02.463Z,6.25
2022-09-02T15:28:02.437Z,6.31
2022-09-02T15:29:02.436Z,6.51
2022-09-02T15:30:02.460Z,6.29
2022-09-02T15:31:02.587Z,7.43
2022-09-02T15:32:02.461Z,6.33
2022-09-02T15:33:02.461Z,6.78
2022-09-02T15:34:02.453Z,6.89
2022-09-02T15:35:02.481Z,6.90
2022-09-02T15:36:02.463Z,6.88
2022-09-02T15:37:02.482Z,6.75
2022-09-02T15:38:02.472Z,6.73
2022-09-02T15:39:02.479Z,6.96
2022-09-02T15:40:02.478Z,6.49